createdAt,value
2019-01-18T00:01:03.814Z,11.00
2019-01-18T00:03:32.117Z,9.83
2019-01-18T00:06:00.638Z,10.70
2019-01-18T00:08:28.310Z,12.97
2019-01-18T00:10:56.478Z,11.53
2019-01-18T00:15:57.478Z,8.80
2019-01-18T00:18:25.509Z,11.57
2019-01-18T00:20:53.742Z,10.60
2019-01-18T00:23:22.176Z,9.80
2019-01-18T00:28:37.695Z,10.30
2019-01-18T00:31:05.347Z,11.20
2019-01-18T00:33:33.726Z,10.90
2019-01-18T00:36:02.014Z,10.90
2019-01-18T00:38:29.959Z,9.23
2019-01-18T00:40:57.938Z,9.00
2019-01-18T00:43:26.117Z,8.93
2019-01-18T00:45:54.213Z,7.07
2019-01-18T00:48:21.873Z,9.63
2019-01-18T00:53:25.410Z,8.00
2019-01-18T00:55:53.950Z,7.17
2019-01-18T00:58:22.350Z,10.27
2019-01-18T01:00:50.267Z,10.50
2019-01-18T01:03:18.198Z,8.47
2019-01-18T01:05:46.104Z,9.17
2019-01-18T01:08:14.288Z,7.60
2019-01-18T01:10:42.482Z,8.33
2019-01-18T01:15:57.950Z,7.80
2019-01-18T01:18:25.958Z,9.27
2019-01-18T01:20:53.633Z,7.37
2019-01-18T01:23:21.297Z,9.23
2019-01-18T01:25:49.729Z,9.30
2019-01-18T01:28:17.718Z,7.97
2019-01-18T01:30:45.642Z,11.60
2019-01-18T01:33:13.565Z,7.53
2019-01-18T01:35:41.250Z,8.70
2019-01-18T01:38:09.240Z,8.87
2019-01-18T01:40:37.556Z,7.90
2019-01-18T01:43:05.601Z,7.47
2019-01-18T01:45:33.536Z,12.93
2019-01-18T01:48:02.096Z,10.20
2019-01-18T01:50:29.757Z,8.83
2019-01-18T01:52:57.495Z,7.00
2019-01-18T01:55:25.928Z,9.87
2019-01-18T01:57:53.869Z,8.50
2019-01-18T02:00:22.770Z,11.60
2019-01-18T02:02:50.763Z,8.80
2019-01-18T02:05:19.165Z,9.53
2019-01-18T02:07:46.884Z,7.97
2019-01-18T02:10:15.324Z,8.87
2019-01-18T02:12:42.986Z,10.87
2019-01-18T02:15:12.024Z,9.07
2019-01-18T02:17:40.700Z,7.67
2019-01-18T02:23:03.429Z,9.37
2019-01-18T02:28:18.325Z,10.43
2019-01-18T02:30:46.222Z,9.00
2019-01-18T02:33:14.450Z,12.00
2019-01-18T02:35:42.631Z,11.07
2019-01-18T02:38:10.567Z,12.00
2019-01-18T02:40:38.490Z,13.53
2019-01-18T02:43:06.676Z,14.73
2019-01-18T02:45:34.326Z,12.03
2019-01-18T02:48:02.625Z,12.93
2019-01-18T02:53:17.791Z,14.37
2019-01-18T02:55:45.768Z,14.80
2019-01-18T02:58:13.422Z,14.73
2019-01-18T03:00:41.697Z,18.77
2019-01-18T03:03:10.306Z,12.93
2019-01-18T03:05:38.002Z,13.30
2019-01-18T03:08:06.183Z,14.53
2019-01-18T03:10:33.844Z,17.43
2019-01-18T03:13:02.029Z,17.00
2019-01-18T03:15:29.952Z,17.13
2019-01-18T03:20:31.309Z,14.97
2019-01-18T03:22:59.560Z,15.67
2019-01-18T03:25:28.473Z,17.53
2019-01-18T03:27:56.742Z,18.57
2019-01-18T03:30:24.752Z,14.30
2019-01-18T03:32:52.703Z,14.70
2019-01-18T03:35:20.860Z,13.60
2019-01-18T03:37:49.445Z,20.47
2019-01-18T03:40:17.514Z,16.70
2019-01-18T03:43:04.662Z,16.50
2019-01-18T03:48:19.613Z,13.40
2019-01-18T03:56:08.601Z,15.87
2019-01-18T03:58:36.273Z,17.40
2019-01-18T04:01:04.301Z,23.37
2019-01-18T04:03:32.354Z,18.70
2019-01-18T04:06:00.570Z,19.40
2019-01-18T04:08:28.828Z,20.40
2019-01-18T04:10:57.142Z,20.70
2019-01-18T04:13:25.420Z,22.07
2019-01-18T04:15:53.452Z,18.83
2019-01-18T04:18:21.425Z,16.40
2019-01-18T04:20:49.795Z,22.40
2019-01-18T04:23:17.448Z,29.70
2019-01-18T04:25:45.781Z,20.10
2019-01-18T04:28:13.739Z,22.13
2019-01-18T04:30:41.709Z,21.63
2019-01-18T04:33:09.984Z,20.70
2019-01-18T04:35:37.713Z,20.57
2019-01-18T04:38:05.373Z,24.40
2019-01-18T04:40:33.052Z,20.70
2019-01-18T04:43:01.261Z,18.80
2019-01-18T04:45:29.707Z,20.17
2019-01-18T04:47:57.698Z,22.10
2019-01-18T04:50:26.496Z,26.07
2019-01-18T04:52:54.176Z,18.47
2019-01-18T04:55:22.253Z,20.93
2019-01-18T05:00:28.002Z,20.33
2019-01-18T05:02:55.674Z,20.07
2019-01-18T05:05:23.744Z,25.40
2019-01-18T05:07:51.742Z,20.50
2019-01-18T05:10:19.795Z,28.40
2019-01-18T05:12:47.785Z,18.73
2019-01-18T05:15:17.063Z,20.43
2019-01-18T05:17:44.802Z,21.90
2019-01-18T05:22:59.719Z,20.57
2019-01-18T05:25:27.952Z,22.70
2019-01-18T05:27:55.895Z,19.83
2019-01-18T05:30:24.922Z,21.53
2019-01-18T05:32:53.303Z,24.40
2019-01-18T05:35:21.482Z,19.83
2019-01-18T05:37:49.490Z,23.80
2019-01-18T05:40:18.079Z,22.20
2019-01-18T05:42:46.268Z,27.13
2019-01-18T05:45:14.986Z,19.97
2019-01-18T05:47:42.987Z,22.07
2019-01-18T05:50:12.380Z,25.37
2019-01-18T05:52:40.395Z,23.60
2019-01-18T05:55:08.719Z,25.27
2019-01-18T05:57:36.715Z,23.20
2019-01-18T06:00:06.534Z,18.67
2019-01-18T06:02:34.594Z,21.47
2019-01-18T06:05:03.132Z,20.30
2019-01-18T06:07:30.806Z,19.57
2019-01-18T06:09:59.270Z,21.67
2019-01-18T06:12:27.028Z,20.40
2019-01-18T06:14:55.539Z,29.93
2019-01-18T06:17:23.586Z,19.97
2019-01-18T06:19:51.668Z,22.10
2019-01-18T06:22:19.853Z,20.83
2019-01-18T06:24:48.106Z,19.67
2019-01-18T06:27:18.316Z,19.80
2019-01-18T06:29:46.860Z,20.37
2019-01-18T06:32:15.351Z,20.00
2019-01-18T06:34:43.625Z,18.67
2019-01-18T06:37:11.609Z,18.23
2019-01-18T06:39:39.281Z,19.43
2019-01-18T06:42:07.332Z,19.90
2019-01-18T06:44:35.839Z,19.10
2019-01-18T06:47:03.805Z,17.47
2019-01-18T06:49:31.936Z,18.97
2019-01-18T06:51:59.628Z,20.30
2019-01-18T06:54:28.537Z,19.17
2019-01-18T06:56:57.119Z,23.10
2019-01-18T06:59:24.781Z,21.10
2019-01-18T07:01:52.548Z,16.10
2019-01-18T07:04:20.214Z,18.90
2019-01-18T07:06:47.939Z,18.30
2019-01-18T07:09:16.306Z,18.43
2019-01-18T07:11:44.281Z,21.40
2019-01-18T07:14:12.699Z,23.83
2019-01-18T07:16:40.723Z,22.77
2019-01-18T07:19:09.124Z,22.23
2019-01-18T07:21:36.851Z,20.37
2019-01-18T07:24:04.889Z,23.37
2019-01-18T07:26:32.894Z,29.20
2019-01-18T07:29:00.891Z,18.23
2019-01-18T07:31:28.615Z,18.70
2019-01-18T07:33:56.806Z,19.27
2019-01-18T07:36:25.141Z,21.87
2019-01-18T07:38:53.529Z,21.03
2019-01-18T07:41:21.765Z,24.00
2019-01-18T07:43:49.975Z,22.93
2019-01-18T07:46:17.638Z,19.60
2019-01-18T07:48:45.585Z,21.50
2019-01-18T07:51:13.590Z,20.23
2019-01-18T07:53:41.845Z,22.83
2019-01-18T07:56:09.586Z,21.27
2019-01-18T07:58:37.578Z,18.23
2019-01-18T08:01:05.590Z,21.30
2019-01-18T08:03:33.582Z,18.43
2019-01-18T08:06:01.562Z,19.23
2019-01-18T08:08:29.230Z,23.63
2019-01-18T08:10:56.922Z,22.73
2019-01-18T08:13:25.208Z,24.40
2019-01-18T08:15:53.348Z,21.93
2019-01-18T08:18:21.030Z,22.53
2019-01-18T08:20:49.095Z,21.67
2019-01-18T08:23:16.761Z,23.10
2019-01-18T08:25:45.109Z,24.40
2019-01-18T08:28:12.791Z,20.20
2019-01-18T08:30:40.452Z,22.57
2019-01-18T08:33:08.742Z,22.83
2019-01-18T08:35:36.821Z,20.50
2019-01-18T08:38:04.550Z,24.73
2019-01-18T08:40:42.345Z,26.40
2019-01-18T08:43:11.154Z,18.87
2019-01-18T08:45:43.994Z,25.60
2019-01-18T08:48:12.292Z,23.87
2019-01-18T08:50:40.560Z,25.97
2019-01-18T08:53:08.804Z,25.80
2019-01-18T08:55:37.057Z,23.40
2019-01-18T08:58:05.094Z,21.80
2019-01-18T09:00:32.794Z,23.00
2019-01-18T09:03:00.842Z,22.03
2019-01-18T09:05:28.808Z,24.60
2019-01-18T09:07:56.989Z,24.90
2019-01-18T09:10:25.886Z,22.30
2019-01-18T09:12:54.271Z,22.80
2019-01-18T09:15:22.402Z,24.50
2019-01-18T09:17:50.616Z,25.33
2019-01-18T09:20:19.791Z,25.83
2019-01-18T09:22:48.318Z,28.17
2019-01-18T09:25:16.161Z,27.50
2019-01-18T09:27:43.838Z,29.97
2019-01-18T09:30:13.475Z,23.93
2019-01-18T09:32:41.205Z,33.53
2019-01-18T09:35:10.099Z,29.90
2019-01-18T09:37:37.764Z,27.20
2019-01-18T09:40:06.733Z,27.77
2019-01-18T09:42:35.085Z,28.50
2019-01-18T09:45:02.852Z,28.87
2019-01-18T09:47:30.546Z,29.70
2019-01-18T09:49:58.969Z,33.33
2019-01-18T09:52:27.205Z,26.87
2019-01-18T09:54:55.234Z,28.97
2019-01-18T09:57:23.541Z,28.07
2019-01-18T09:59:51.475Z,31.53
2019-01-18T10:02:19.421Z,33.10
2019-01-18T10:04:47.409Z,34.60
2019-01-18T10:07:15.400Z,33.80
2019-01-18T10:09:43.062Z,27.67
2019-01-18T10:12:10.760Z,34.00
2019-01-18T10:14:38.827Z,26.77
2019-01-18T10:17:06.550Z,24.27
2019-01-18T10:19:34.227Z,25.70
2019-01-18T10:22:02.182Z,24.77
2019-01-18T10:24:30.145Z,23.53
2019-01-18T10:26:58.208Z,23.40
2019-01-18T10:29:28.240Z,29.30
2019-01-18T10:31:56.449Z,21.80
2019-01-18T10:34:24.241Z,25.40
2019-01-18T10:36:52.254Z,23.53
2019-01-18T10:39:19.925Z,29.23
2019-01-18T10:41:47.614Z,26.83
2019-01-18T10:44:16.243Z,24.57
2019-01-18T10:46:44.546Z,29.63
2019-01-18T10:49:12.923Z,30.23
2019-01-18T10:51:40.961Z,26.67
2019-01-18T10:54:09.613Z,26.60
2019-01-18T10:56:38.191Z,26.90
2019-01-18T10:59:06.680Z,26.20
2019-01-18T11:01:34.449Z,26.20
2019-01-18T11:04:02.817Z,26.90
2019-01-18T11:06:31.190Z,27.50
2019-01-18T11:08:59.569Z,27.13
2019-01-18T11:11:27.978Z,27.37
2019-01-18T11:13:57.470Z,25.80
2019-01-18T11:16:25.188Z,27.27
2019-01-18T11:18:53.223Z,25.80
2019-01-18T11:21:22.587Z,21.77
2019-01-18T11:23:50.286Z,19.70
2019-01-18T11:26:18.461Z,18.93
2019-01-18T11:28:46.474Z,17.90
2019-01-18T11:31:14.592Z,15.37
2019-01-18T11:33:42.290Z,16.90
2019-01-18T11:36:10.275Z,21.10
2019-01-18T11:38:38.586Z,18.17
2019-01-18T11:41:06.683Z,16.77
2019-01-18T11:43:34.729Z,17.43
2019-01-18T11:46:03.002Z,20.73
2019-01-18T11:48:31.381Z,17.13
2019-01-18T11:50:59.811Z,14.93
2019-01-18T11:53:27.492Z,16.30
2019-01-18T11:55:55.484Z,16.00
2019-01-18T11:58:23.837Z,19.30
2019-01-18T12:00:52.215Z,16.77
2019-01-18T12:03:19.902Z,18.77
2019-01-18T12:05:48.284Z,19.73
2019-01-18T12:08:16.581Z,21.53
2019-01-18T12:10:44.608Z,25.80
2019-01-18T12:13:13.025Z,21.97
2019-01-18T12:15:41.290Z,21.50
2019-01-18T12:18:09.779Z,18.60
2019-01-18T12:20:38.131Z,21.10
2019-01-18T12:23:06.844Z,24.67
2019-01-18T12:25:34.918Z,21.73
2019-01-18T12:28:03.399Z,24.50
2019-01-18T12:30:32.191Z,21.17
2019-01-18T12:32:59.850Z,20.00
2019-01-18T12:35:28.219Z,22.70
2019-01-18T12:37:56.397Z,20.57
2019-01-18T12:40:24.734Z,18.73
2019-01-18T12:42:52.706Z,19.67
2019-01-18T12:45:21.131Z,19.73
2019-01-18T12:47:49.602Z,22.43
2019-01-18T12:50:21.570Z,22.93
2019-01-18T12:52:50.175Z,22.80
2019-01-18T12:55:18.637Z,25.87
2019-01-18T12:57:46.663Z,19.60
2019-01-18T13:00:15.790Z,17.40
2019-01-18T13:02:43.592Z,19.67
2019-01-18T13:05:12.753Z,18.63
2019-01-18T13:07:40.824Z,18.60
2019-01-18T13:10:12.283Z,19.87
2019-01-18T13:12:39.126Z,20.17
2019-01-18T13:15:08.736Z,19.03
2019-01-18T13:17:36.694Z,19.27
2019-01-18T13:20:05.068Z,18.63
2019-01-18T13:22:32.814Z,19.20
2019-01-18T13:25:01.077Z,17.40
2019-01-18T13:27:29.063Z,19.70
2019-01-18T13:29:56.731Z,18.90
2019-01-18T13:32:24.721Z,19.57
2019-01-18T13:34:53.390Z,16.57
2019-01-18T13:37:21.410Z,17.30
2019-01-18T13:39:49.094Z,17.50
2019-01-18T13:42:17.119Z,20.60
2019-01-18T13:44:44.797Z,18.00
2019-01-18T13:47:18.286Z,24.53
2019-01-18T13:49:42.699Z,22.33
2019-01-18T13:52:11.037Z,17.60
2019-01-18T13:54:38.702Z,17.90
2019-01-18T13:57:06.754Z,17.13
2019-01-18T13:59:34.434Z,17.17
2019-01-18T14:02:03.219Z,17.27
2019-01-18T14:04:31.157Z,19.93
2019-01-18T14:06:58.846Z,20.10
2019-01-18T14:09:26.766Z,17.27
2019-01-18T14:11:55.888Z,17.27
2019-01-18T14:14:24.441Z,24.93
2019-01-18T14:16:52.470Z,20.27
2019-01-18T14:19:20.542Z,20.53
2019-01-18T14:21:48.227Z,21.40
2019-01-18T14:24:15.882Z,22.67
2019-01-18T14:26:43.661Z,21.93
2019-01-18T14:29:11.600Z,23.90
2019-01-18T14:31:39.969Z,22.80
2019-01-18T14:34:08.353Z,22.43
2019-01-18T14:36:36.439Z,24.17
2019-01-18T14:39:07.754Z,26.47
2019-01-18T14:41:35.714Z,24.33
2019-01-18T14:44:03.653Z,23.97
2019-01-18T14:46:31.950Z,23.93
2019-01-18T14:48:59.966Z,31.50
2019-01-18T14:51:27.883Z,29.80
2019-01-18T14:53:56.103Z,30.40
2019-01-18T14:56:23.790Z,24.50
2019-01-18T14:58:52.251Z,25.87
2019-01-18T15:01:20.325Z,22.23
2019-01-18T15:03:48.534Z,24.37
2019-01-18T15:06:16.303Z,23.43
2019-01-18T15:08:44.280Z,23.33
2019-01-18T15:11:12.511Z,25.03
2019-01-18T15:13:40.615Z,23.50
2019-01-18T15:16:08.604Z,25.80
2019-01-18T15:18:36.648Z,25.53
2019-01-18T15:21:04.752Z,25.80
2019-01-18T15:23:32.436Z,27.07
2019-01-18T15:26:00.357Z,20.50
2019-01-18T15:28:28.571Z,19.83
2019-01-18T15:30:56.842Z,19.60
2019-01-18T15:33:25.072Z,22.17
2019-01-18T15:35:53.366Z,22.30
2019-01-18T15:38:21.033Z,19.60
2019-01-18T15:40:49.596Z,21.60
2019-01-18T15:43:20.715Z,19.90
2019-01-18T15:45:48.748Z,19.47
2019-01-18T15:48:16.705Z,18.57
2019-01-18T15:50:45.137Z,19.73
2019-01-18T15:53:13.088Z,21.90
2019-01-18T15:55:41.125Z,19.10
2019-01-18T15:58:09.261Z,21.50
2019-01-18T16:00:38.288Z,19.50
2019-01-18T16:03:06.076Z,17.57
2019-01-18T16:05:33.748Z,19.63
2019-01-18T16:08:01.780Z,16.43
2019-01-18T16:10:30.014Z,18.93
2019-01-18T16:12:58.244Z,19.03
2019-01-18T16:15:27.793Z,18.43
2019-01-18T16:17:56.322Z,19.60
2019-01-18T16:20:24.304Z,15.60
2019-01-18T16:22:52.304Z,20.53
2019-01-18T16:25:21.890Z,18.80
2019-01-18T16:27:49.572Z,16.93
2019-01-18T16:30:17.971Z,20.23
2019-01-18T16:32:46.342Z,20.73
2019-01-18T16:35:15.133Z,18.57
2019-01-18T16:37:42.837Z,20.70
2019-01-18T16:40:14.473Z,19.20
2019-01-18T16:42:43.221Z,17.70
2019-01-18T16:45:11.734Z,18.37
2019-01-18T16:47:39.861Z,19.20
2019-01-18T16:50:09.088Z,16.30
2019-01-18T16:52:37.263Z,19.23
2019-01-18T16:55:05.629Z,18.00
2019-01-18T16:57:33.665Z,15.67
2019-01-18T17:00:01.771Z,16.63
2019-01-18T17:02:29.438Z,15.73
2019-01-18T17:04:57.837Z,14.83
2019-01-18T17:07:26.230Z,15.40
2019-01-18T17:09:54.581Z,15.30
2019-01-18T17:12:22.977Z,15.97
2019-01-18T17:14:51.008Z,16.10
2019-01-18T17:17:18.926Z,19.37
2019-01-18T17:19:47.303Z,17.53
2019-01-18T17:22:15.246Z,14.93
2019-01-18T17:24:42.922Z,19.00
2019-01-18T17:27:10.602Z,16.30
2019-01-18T17:29:39.352Z,17.27
2019-01-18T17:32:07.314Z,16.20
2019-01-18T17:34:35.080Z,18.80
2019-01-18T17:37:10.978Z,18.03
2019-01-18T17:39:47.802Z,18.23
2019-01-18T17:42:34.950Z,14.97
2019-01-18T17:45:13.087Z,14.73
2019-01-18T17:47:59.238Z,16.33
2019-01-18T17:50:45.338Z,15.93
2019-01-18T17:53:20.095Z,17.10
2019-01-18T17:56:16.145Z,15.30
2019-01-18T17:59:06.336Z,14.53
2019-01-18T18:01:51.046Z,16.60
2019-01-18T18:04:32.176Z,17.73
2019-01-18T18:07:07.121Z,14.67
2019-01-18T18:09:44.362Z,14.17
2019-01-18T18:12:32.558Z,15.00
2019-01-18T18:15:16.282Z,16.03
2019-01-18T18:18:03.337Z,18.07
2019-01-18T18:20:37.655Z,14.20
2019-01-18T18:23:20.030Z,20.10
2019-01-18T18:26:06.844Z,17.30
2019-01-18T18:28:59.672Z,16.67
2019-01-18T18:31:33.476Z,16.40
2019-01-18T18:34:26.058Z,22.27
2019-01-18T18:37:02.922Z,16.47
2019-01-18T18:39:53.197Z,15.40
2019-01-18T18:42:28.412Z,20.37
2019-01-18T18:45:14.477Z,15.60
2019-01-18T18:47:53.042Z,16.93
2019-01-18T18:50:39.839Z,14.97
2019-01-18T18:53:36.578Z,17.53
2019-01-18T18:56:10.435Z,20.33
2019-01-18T18:59:09.572Z,18.53
2019-01-18T19:01:59.816Z,18.20
2019-01-18T19:04:35.206Z,15.27
2019-01-18T19:07:21.206Z,16.77
2019-01-18T19:09:55.202Z,16.63
2019-01-18T19:12:54.607Z,17.13
2019-01-18T19:15:44.177Z,15.67
2019-01-18T19:18:28.748Z,16.83
2019-01-18T19:21:18.316Z,16.40
2019-01-18T19:23:54.909Z,19.40
2019-01-18T19:26:26.450Z,14.90
2019-01-18T19:29:12.347Z,16.13
2019-01-18T19:31:54.761Z,14.37
2019-01-18T19:34:39.672Z,16.50
2019-01-18T19:37:27.132Z,17.67
2019-01-18T19:40:05.434Z,17.83
2019-01-18T19:42:54.119Z,18.87
2019-01-18T19:45:41.894Z,17.40
2019-01-18T19:48:32.123Z,15.73
2019-01-18T19:51:21.742Z,17.00
2019-01-18T19:54:17.715Z,18.47
2019-01-18T19:57:03.618Z,19.07
2019-01-18T20:00:03.252Z,17.50
2019-01-18T20:03:02.968Z,17.10
2019-01-18T20:05:37.647Z,16.03
2019-01-18T20:08:33.962Z,14.73
2019-01-18T20:11:19.530Z,16.80
2019-01-18T20:14:12.465Z,16.27
2019-01-18T20:16:47.294Z,15.40
2019-01-18T20:19:33.043Z,18.10
2019-01-18T20:22:32.048Z,19.37
2019-01-18T20:25:28.156Z,17.00
2019-01-18T20:28:03.852Z,20.20
2019-01-18T20:30:38.170Z,25.90
2019-01-18T20:33:22.475Z,20.13
2019-01-18T20:36:12.265Z,19.50
2019-01-18T20:39:15.716Z,17.50
2019-01-18T20:42:01.568Z,19.97
2019-01-18T20:44:48.794Z,17.13
2019-01-18T20:47:30.688Z,19.23
2019-01-18T20:50:23.922Z,17.40
2019-01-18T20:53:16.647Z,21.67
2019-01-18T20:55:55.729Z,17.93
2019-01-18T20:58:51.835Z,16.63
2019-01-18T21:01:41.497Z,18.33
2019-01-18T21:04:25.206Z,17.57
2019-01-18T21:07:02.830Z,16.77
2019-01-18T21:09:41.275Z,18.67
2019-01-18T21:12:28.345Z,18.63
2019-01-18T21:15:07.696Z,18.47
2019-01-18T21:18:06.575Z,18.73
2019-01-18T21:20:50.451Z,17.20
2019-01-18T21:23:43.938Z,18.73
2019-01-18T21:26:17.851Z,19.03
2019-01-18T21:29:03.322Z,19.23
2019-01-18T21:32:02.158Z,18.20
2019-01-18T21:34:46.619Z,17.53
2019-01-18T21:37:46.012Z,18.87
2019-01-18T21:40:33.173Z,20.10
2019-01-18T21:43:19.143Z,19.40
2019-01-18T21:46:12.253Z,16.50
2019-01-18T21:49:08.167Z,17.17
2019-01-18T21:52:04.683Z,17.57
2019-01-18T21:54:57.291Z,19.00
2019-01-18T21:57:53.449Z,19.03
2019-01-18T22:00:25.504Z,17.30
2019-01-18T22:03:18.399Z,17.90
2019-01-18T22:06:05.829Z,18.20
2019-01-18T22:08:52.719Z,16.30
2019-01-18T22:11:46.436Z,17.30
2019-01-18T22:14:25.338Z,14.73
2019-01-18T22:17:18.289Z,18.87
2019-01-18T22:20:23.563Z,17.97
2019-01-18T22:23:10.726Z,19.40
2019-01-18T22:26:04.361Z,19.83
2019-01-18T22:28:42.035Z,20.83
2019-01-18T22:31:47.193Z,18.50
2019-01-18T22:34:21.455Z,17.50
2019-01-18T22:36:57.990Z,20.47
2019-01-18T22:39:57.242Z,20.37
2019-01-18T22:42:30.986Z,22.57
2019-01-18T22:45:19.629Z,19.50
2019-01-18T22:48:09.613Z,19.17
2019-01-18T22:50:55.711Z,19.97
2019-01-18T22:53:48.822Z,16.20
2019-01-18T22:56:38.713Z,17.43
2019-01-18T22:59:24.628Z,16.10
2019-01-18T23:02:10.430Z,16.00
2019-01-18T23:04:57.434Z,16.60
2019-01-18T23:07:47.031Z,14.13
2019-01-18T23:10:34.837Z,19.13
2019-01-18T23:13:05.857Z,19.00
2019-01-18T23:15:56.695Z,14.33
2019-01-18T23:18:27.875Z,15.23
2019-01-18T23:21:14.680Z,17.73
2019-01-18T23:24:09.007Z,17.27
2019-01-18T23:27:04.911Z,15.13
2019-01-18T23:29:50.466Z,14.90
2019-01-18T23:32:46.325Z,19.00
2019-01-18T23:35:45.284Z,14.60
2019-01-18T23:38:41.413Z,15.83
2019-01-18T23:41:28.620Z,18.30
2019-01-18T23:44:03.803Z,20.63
2019-01-18T23:47:00.173Z,13.53
2019-01-18T23:49:35.726Z,14.23
2019-01-18T23:52:16.597Z,15.27
2019-01-18T23:55:12.754Z,17.50
2019-01-18T23:57:52.879Z,17.70
